sensor_id;sensor_type;location;lat;lon;timestamp;pressure;altitude;pressure_sealevel;temperature;humidity
31285;BME280;56605;51.516;6.742;2022-11-02T00:02:06;101323.84;;;12.95;92.93
31285;BME280;56605;51.516;6.742;2022-11-02T00:04:32;101316.44;;;12.97;92.79
31285;BME280;56605;51.516;6.742;2022-11-02T00:06:57;101324.84;;;13.02;92.31
31285;BME280;56605;51.516;6.742;2022-11-02T00:09:22;101319.94;;;13.06;92.57
31285;BME280;56605;51.516;6.742;2022-11-02T00:11:47;101324.16;;;13.09;91.05
31285;BME280;56605;51.516;6.742;2022-11-02T00:14:13;101318.47;;;13.12;90.66
31285;BME280;56605;51.516;6.742;2022-11-02T00:16:38;101314.44;;;13.16;91.02
31285;BME280;56605;51.516;6.742;2022-11-02T00:19:05;101314.94;;;13.11;90.61
31285;BME280;56605;51.516;6.742;2022-11-02T00:21:30;101311.75;;;13.07;90.81
31285;BME280;56605;51.516;6.742;2022-11-02T00:23:56;101313.09;;;13.03;91.92
31285;BME280;56605;51.516;6.742;2022-11-02T00:26:22;101318.13;;;13.06;93.03
31285;BME280;56605;51.516;6.742;2022-11-02T00:28:48;101323.00;;;13.03;93.99
31285;BME280;56605;51.516;6.742;2022-11-02T00:31:13;101314.75;;;13.04;94.42
31285;BME280;56605;51.516;6.742;2022-11-02T00:33:39;101317.28;;;13.06;94.90
31285;BME280;56605;51.516;6.742;2022-11-02T00:36:04;101323.66;;;13.13;93.23
31285;BME280;56605;51.516;6.742;2022-11-02T00:38:30;101320.28;;;13.11;93.94
31285;BME280;56605;51.516;6.742;2022-11-02T00:40:56;101317.59;;;13.28;91.91
31285;BME280;56605;51.516;6.742;2022-11-02T00:43:21;101328.25;;;13.44;90.23
31285;BME280;56605;51.516;6.742;2022-11-02T00:45:46;101314.84;;;13.44;90.43
31285;BME280;56605;51.516;6.742;2022-11-02T00:48:12;101319.72;;;13.57;89.21
31285;BME280;56605;51.516;6.742;2022-11-02T00:50:37;101320.53;;;13.58;88.12
31285;BME280;56605;51.516;6.742;2022-11-02T00:53:02;101323.22;;;13.58;89.00
31285;BME280;56605;51.516;6.742;2022-11-02T00:55:27;101319.97;;;13.71;87.43
31285;BME280;56605;51.516;6.742;2022-11-02T00:57:53;101318.00;;;13.65;87.96
31285;BME280;56605;51.516;6.742;2022-11-02T01:00:19;101323.03;;;13.68;88.29
31285;BME280;56605;51.516;6.742;2022-11-02T01:02:44;101324.19;;;13.65;88.23
31285;BME280;56605;51.516;6.742;2022-11-02T01:05:10;101327.53;;;13.67;88.34
31285;BME280;56605;51.516;6.742;2022-11-02T01:07:35;101317.19;;;13.56;89.21
31285;BME280;56605;51.516;6.742;2022-11-02T01:10:03;101320.00;;;13.63;88.29
31285;BME280;56605;51.516;6.742;2022-11-02T01:12:28;101322.53;;;13.64;88.60
31285;BME280;56605;51.516;6.742;2022-11-02T01:14:53;101323.84;;;13.68;88.57
31285;BME280;56605;51.516;6.742;2022-11-02T01:17:18;101321.50;;;13.74;88.34
31285;BME280;56605;51.516;6.742;2022-11-02T01:19:44;101324.53;;;13.62;88.66
31285;BME280;56605;51.516;6.742;2022-11-02T01:22:09;101321.66;;;13.64;88.00
31285;BME280;56605;51.516;6.742;2022-11-02T01:24:35;101319.16;;;13.62;88.82
31285;BME280;56605;51.516;6.742;2022-11-02T01:27:00;101329.38;;;13.67;88.04
31285;BME280;56605;51.516;6.742;2022-11-02T01:29:25;101326.56;;;13.52;88.95
31285;BME280;56605;51.516;6.742;2022-11-02T01:31:51;101323.91;;;13.43;88.83
31285;BME280;56605;51.516;6.742;2022-11-02T01:34:18;101333.47;;;13.38;89.09
31285;BME280;56605;51.516;6.742;2022-11-02T01:36:44;101324.41;;;13.39;88.81
31285;BME280;56605;51.516;6.742;2022-11-02T01:39:10;101328.63;;;13.33;89.27
31285;BME280;56605;51.516;6.742;2022-11-02T01:41:35;101331.31;;;13.33;88.87
31285;BME280;56605;51.516;6.742;2022-11-02T01:44:02;101339.34;;;13.33;88.99
31285;BME280;56605;51.516;6.742;2022-11-02T01:46:35;101332.31;;;13.32;89.38
31285;BME280;56605;51.516;6.742;2022-11-02T01:49:07;101332.81;;;13.27;89.56
31285;BME280;56605;51.516;6.742;2022-11-02T01:52:04;101343.03;;;13.32;88.78
31285;BME280;56605;51.516;6.742;2022-11-02T01:54:36;101337.50;;;13.34;88.65
31285;BME280;56605;51.516;6.742;2022-11-02T01:57:07;101351.09;;;13.32;88.08
31285;BME280;56605;51.516;6.742;2022-11-02T01:59:38;101336.34;;;13.28;89.48
31285;BME280;56605;51.516;6.742;2022-11-02T02:02:09;101333.34;;;13.31;89.30
31285;BME280;56605;51.516;6.742;2022-11-02T02:04:38;101328.66;;;13.25;90.10
31285;BME280;56605;51.516;6.742;2022-11-02T02:07:03;101345.25;;;13.20;90.98
31285;BME280;56605;51.516;6.742;2022-11-02T02:09:29;101336.69;;;13.16;91.69
31285;BME280;56605;51.516;6.742;2022-11-02T02:11:54;101337.53;;;13.17;91.53
31285;BME280;56605;51.516;6.742;2022-11-02T02:14:20;101326.97;;;13.15;91.43
31285;BME280;56605;51.516;6.742;2022-11-02T02:19:48;101329.19;;;13.03;92.22
31285;BME280;56605;51.516;6.742;2022-11-02T02:25:20;101326.00;;;13.00;92.46
31285;BME280;56605;51.516;6.742;2022-11-02T02:28:11;101328.34;;;13.11;91.76
31285;BME280;56605;51.516;6.742;2022-11-02T02:30:49;101330.69;;;13.06;92.11
31285;BME280;56605;51.516;6.742;2022-11-02T02:36:12;101325.00;;;13.01;93.42
31285;BME280;56605;51.516;6.742;2022-11-02T02:38:48;101321.63;;;12.99;93.91
31285;BME280;56605;51.516;6.742;2022-11-02T02:41:28;101325.69;;;13.03;93.56
31285;BME280;56605;51.516;6.742;2022-11-02T02:43:57;101318.97;;;12.90;94.24
31285;BME280;56605;51.516;6.742;2022-11-02T02:46:32;101321.16;;;12.87;94.41
31285;BME280;56605;51.516;6.742;2022-11-02T02:48:59;101335.22;;;12.89;94.62
31285;BME280;56605;51.516;6.742;2022-11-02T02:51:28;101327.88;;;12.91;94.04
31285;BME280;56605;51.516;6.742;2022-11-02T02:54:01;101337.25;;;12.95;94.57
31285;BME280;56605;51.516;6.742;2022-11-02T02:56:29;101331.69;;;12.88;94.38
31285;BME280;56605;51.516;6.742;2022-11-02T02:59:06;101339.56;;;12.90;94.54
31285;BME280;56605;51.516;6.742;2022-11-02T03:01:33;101331.03;;;12.94;94.59
31285;BME280;56605;51.516;6.742;2022-11-02T03:03:59;101339.91;;;13.03;94.25
31285;BME280;56605;51.516;6.742;2022-11-02T03:06:32;101343.09;;;13.07;95.52
31285;BME280;56605;51.516;6.742;2022-11-02T03:11:32;101356.00;;;12.95;95.76
31285;BME280;56605;51.516;6.742;2022-11-02T03:14:17;101342.75;;;12.93;95.89
31285;BME280;56605;51.516;6.742;2022-11-02T03:17:19;101346.28;;;12.94;95.59
31285;BME280;56605;51.516;6.742;2022-11-02T03:22:15;101346.63;;;12.91;96.10
31285;BME280;56605;51.516;6.742;2022-11-02T03:25:04;101357.34;;;12.91;95.97
31285;BME280;56605;51.516;6.742;2022-11-02T03:27:52;101352.81;;;12.83;95.50
31285;BME280;56605;51.516;6.742;2022-11-02T03:30:25;101364.38;;;12.84;95.83
31285;BME280;56605;51.516;6.742;2022-11-02T03:33:05;101378.59;;;12.84;95.52
31285;BME280;56605;51.516;6.742;2022-11-02T03:35:55;101361.50;;;12.85;95.76
31285;BME280;56605;51.516;6.742;2022-11-02T03:38:46;101364.19;;;12.77;96.28
31285;BME280;56605;51.516;6.742;2022-11-02T03:41:15;101372.56;;;12.74;96.85
31285;BME280;56605;51.516;6.742;2022-11-02T03:43:42;101371.38;;;12.68;97.65
31285;BME280;56605;51.516;6.742;2022-11-02T03:46:09;101372.06;;;12.70;96.28
31285;BME280;56605;51.516;6.742;2022-11-02T03:48:39;101380.75;;;12.72;95.13
31285;BME280;56605;51.516;6.742;2022-11-02T03:51:09;101388.97;;;12.62;96.84
31285;BME280;56605;51.516;6.742;2022-11-02T03:54:01;101381.09;;;12.61;95.60
31285;BME280;56605;51.516;6.742;2022-11-02T03:56:36;101388.97;;;12.54;96.13
31285;BME280;56605;51.516;6.742;2022-11-02T03:59:02;101392.47;;;12.46;96.20
31285;BME280;56605;51.516;6.742;2022-11-02T04:01:28;101401.34;;;12.47;96.62
31285;BME280;56605;51.516;6.742;2022-11-02T04:03:54;101405.31;;;12.42;96.03
31285;BME280;56605;51.516;6.742;2022-11-02T04:06:20;101403.13;;;12.38;96.42
31285;BME280;56605;51.516;6.742;2022-11-02T04:08:48;101412.34;;;12.35;96.70
31285;BME280;56605;51.516;6.742;2022-11-02T04:11:14;101404.78;;;12.30;96.26
31285;BME280;56605;51.516;6.742;2022-11-02T04:13:58;101402.78;;;12.33;96.34
31285;BME280;56605;51.516;6.742;2022-11-02T04:16:42;101411.50;;;12.35;94.91
31285;BME280;56605;51.516;6.742;2022-11-02T04:19:10;101408.16;;;12.33;94.48
31285;BME280;56605;51.516;6.742;2022-11-02T04:21:55;101414.69;;;12.38;93.83
31285;BME280;56605;51.516;6.742;2022-11-02T04:24:39;101417.53;;;12.37;94.39
31285;BME280;56605;51.516;6.742;2022-11-02T04:27:23;101413.81;;;12.29;93.67
31285;BME280;56605;51.516;6.742;2022-11-02T04:29:48;101427.06;;;12.31;94.21
31285;BME280;56605;51.516;6.742;2022-11-02T04:32:14;101424.06;;;12.34;93.85
31285;BME280;56605;51.516;6.742;2022-11-02T04:34:39;101437.28;;;12.36;93.49
31285;BME280;56605;51.516;6.742;2022-11-02T04:37:04;101434.91;;;12.33;94.19
31285;BME280;56605;51.516;6.742;2022-11-02T04:39:49;101446.81;;;12.30;94.99
31285;BME280;56605;51.516;6.742;2022-11-02T04:42:15;101435.88;;;12.23;94.95
31285;BME280;56605;51.516;6.742;2022-11-02T04:44:40;101445.94;;;12.21;96.05
31285;BME280;56605;51.516;6.742;2022-11-02T04:47:05;101459.63;;;12.18;95.58
31285;BME280;56605;51.516;6.742;2022-11-02T04:49:30;101456.25;;;12.16;96.46
31285;BME280;56605;51.516;6.742;2022-11-02T04:51:56;101451.38;;;12.11;97.22
31285;BME280;56605;51.516;6.742;2022-11-02T04:54:21;101458.28;;;12.14;97.64
31285;BME280;56605;51.516;6.742;2022-11-02T04:56:46;101459.56;;;12.10;98.08
31285;BME280;56605;51.516;6.742;2022-11-02T04:59:12;101457.91;;;12.09;98.40
31285;BME280;56605;51.516;6.742;2022-11-02T05:01:37;101459.41;;;12.11;98.85
31285;BME280;56605;51.516;6.742;2022-11-02T05:04:02;101482.69;;;12.11;99.20
31285;BME280;56605;51.516;6.742;2022-11-02T05:06:28;101472.28;;;12.08;98.61
31285;BME280;56605;51.516;6.742;2022-11-02T05:08:54;101468.13;;;12.13;97.68
31285;BME280;56605;51.516;6.742;2022-11-02T05:11:19;101467.06;;;12.06;97.95
31285;BME280;56605;51.516;6.742;2022-11-02T05:13:44;101476.81;;;12.07;97.54
31285;BME280;56605;51.516;6.742;2022-11-02T05:16:16;101483.66;;;12.10;98.66
31285;BME280;56605;51.516;6.742;2022-11-02T05:18:42;101480.06;;;12.01;98.38
31285;BME280;56605;51.516;6.742;2022-11-02T05:21:08;101481.41;;;11.97;97.83
31285;BME280;56605;51.516;6.742;2022-11-02T05:23:34;101480.03;;;11.92;98.16
31285;BME280;56605;51.516;6.742;2022-11-02T05:26:01;101478.22;;;11.93;98.10
31285;BME280;56605;51.516;6.742;2022-11-02T05:28:27;101480.03;;;11.92;97.67
31285;BME280;56605;51.516;6.742;2022-11-02T05:30:54;101476.50;;;11.92;98.73
31285;BME280;56605;51.516;6.742;2022-11-02T05:33:20;101486.56;;;11.90;98.66
31285;BME280;56605;51.516;6.742;2022-11-02T05:35:46;101484.66;;;11.82;98.75
31285;BME280;56605;51.516;6.742;2022-11-02T05:38:11;101483.66;;;11.83;98.56
31285;BME280;56605;51.516;6.742;2022-11-02T05:40:37;101486.72;;;11.88;99.01
31285;BME280;56605;51.516;6.742;2022-11-02T05:43:05;101487.50;;;11.80;98.19
31285;BME280;56605;51.516;6.742;2022-11-02T05:45:32;101497.69;;;11.77;98.58
31285;BME280;56605;51.516;6.742;2022-11-02T05:48:01;101487.97;;;11.76;98.58
31285;BME280;56605;51.516;6.742;2022-11-02T05:50:27;101495.97;;;11.76;98.90
31285;BME280;56605;51.516;6.742;2022-11-02T05:52:53;101495.63;;;11.71;99.33
31285;BME280;56605;51.516;6.742;2022-11-02T05:55:18;101507.34;;;11.70;99.26
31285;BME280;56605;51.516;6.742;2022-11-02T05:57:52;101503.81;;;11.69;97.97
31285;BME280;56605;51.516;6.742;2022-11-02T06:00:19;101520.16;;;11.66;98.80
31285;BME280;56605;51.516;6.742;2022-11-02T06:02:45;101535.16;;;11.59;99.44
31285;BME280;56605;51.516;6.742;2022-11-02T06:05:11;101538.13;;;11.56;99.70
31285;BME280;56605;51.516;6.742;2022-11-02T06:07:36;101548.84;;;11.56;99.12
31285;BME280;56605;51.516;6.742;2022-11-02T06:10:01;101556.50;;;11.50;100.00
31285;BME280;56605;51.516;6.742;2022-11-02T06:12:27;101561.28;;;11.47;99.65
31285;BME280;56605;51.516;6.742;2022-11-02T06:14:52;101553.28;;;11.47;99.70
31285;BME280;56605;51.516;6.742;2022-11-02T06:17:18;101570.00;;;11.49;99.44
31285;BME280;56605;51.516;6.742;2022-11-02T06:19:43;101572.34;;;11.52;99.19
31285;BME280;56605;51.516;6.742;2022-11-02T06:22:08;101572.97;;;11.64;98.34
31285;BME280;56605;51.516;6.742;2022-11-02T06:24:33;101573.09;;;11.62;97.90
31285;BME280;56605;51.516;6.742;2022-11-02T06:26:59;101582.84;;;11.63;97.69
31285;BME280;56605;51.516;6.742;2022-11-02T06:29:24;101577.63;;;11.62;98.65
31285;BME280;56605;51.516;6.742;2022-11-02T06:31:49;101582.28;;;11.60;98.68
31285;BME280;56605;51.516;6.742;2022-11-02T06:34:14;101586.66;;;11.61;97.02
31285;BME280;56605;51.516;6.742;2022-11-02T06:36:40;101593.91;;;11.69;96.57
31285;BME280;56605;51.516;6.742;2022-11-02T06:39:05;101591.75;;;11.72;96.00
31285;BME280;56605;51.516;6.742;2022-11-02T06:41:30;101602.78;;;11.69;95.53
31285;BME280;56605;51.516;6.742;2022-11-02T06:43:56;101602.63;;;11.71;96.43
31285;BME280;56605;51.516;6.742;2022-11-02T06:46:21;101611.66;;;11.70;95.65
31285;BME280;56605;51.516;6.742;2022-11-02T06:48:46;101602.22;;;11.65;95.20
31285;BME280;56605;51.516;6.742;2022-11-02T06:51:12;101613.16;;;11.72;95.11
31285;BME280;56605;51.516;6.742;2022-11-02T06:53:38;101623.88;;;11.72;95.12
31285;BME280;56605;51.516;6.742;2022-11-02T06:56:03;101628.22;;;11.73;94.58
31285;BME280;56605;51.516;6.742;2022-11-02T06:58:28;101637.91;;;11.74;94.85
31285;BME280;56605;51.516;6.742;2022-11-02T07:01:02;101641.13;;;11.78;94.80
31285;BME280;56605;51.516;6.742;2022-11-02T07:03:29;101652.84;;;11.77;93.98
31285;BME280;56605;51.516;6.742;2022-11-02T07:05:54;101652.59;;;11.70;94.68
31285;BME280;56605;51.516;6.742;2022-11-02T07:08:20;101659.41;;;11.64;95.43
31285;BME280;56605;51.516;6.742;2022-11-02T07:10:45;101664.22;;;11.61;94.17
31285;BME280;56605;51.516;6.742;2022-11-02T07:13:11;101671.84;;;11.56;93.85
31285;BME280;56605;51.516;6.742;2022-11-02T07:15:36;101675.13;;;11.49;94.91
31285;BME280;56605;51.516;6.742;2022-11-02T07:18:02;101674.75;;;11.44;94.08
31285;BME280;56605;51.516;6.742;2022-11-02T07:20:28;101676.41;;;11.45;94.49
31285;BME280;56605;51.516;6.742;2022-11-02T07:22:56;101694.44;;;11.43;94.74
31285;BME280;56605;51.516;6.742;2022-11-02T07:25:23;101700.78;;;11.42;95.04
31285;BME280;56605;51.516;6.742;2022-11-02T07:27:49;101698.25;;;11.40;95.58
31285;BME280;56605;51.516;6.742;2022-11-02T07:30:14;101707.97;;;11.41;95.11
31285;BME280;56605;51.516;6.742;2022-11-02T07:32:41;101713.13;;;11.43;94.28
31285;BME280;56605;51.516;6.742;2022-11-02T07:35:08;101714.06;;;11.52;94.02
31285;BME280;56605;51.516;6.742;2022-11-02T07:37:33;101723.09;;;11.51;93.77
31285;BME280;56605;51.516;6.742;2022-11-02T07:39:59;101723.25;;;11.49;94.39
31285;BME280;56605;51.516;6.742;2022-11-02T07:42:24;101738.75;;;11.46;94.57
31285;BME280;56605;51.516;6.742;2022-11-02T07:44:50;101726.69;;;11.41;93.47
31285;BME280;56605;51.516;6.742;2022-11-02T07:47:15;101742.72;;;11.41;93.96
31285;BME280;56605;51.516;6.742;2022-11-02T07:49:40;101739.88;;;11.43;93.86
31285;BME280;56605;51.516;6.742;2022-11-02T07:52:05;101749.31;;;11.47;93.67
31285;BME280;56605;51.516;6.742;2022-11-02T07:54:31;101754.50;;;11.49;93.06
31285;BME280;56605;51.516;6.742;2022-11-02T07:56:56;101755.75;;;11.54;93.43
31285;BME280;56605;51.516;6.742;2022-11-02T07:59:21;101759.66;;;11.60;93.74
31285;BME280;56605;51.516;6.742;2022-11-02T08:01:46;101769.66;;;11.58;93.48
31285;BME280;56605;51.516;6.742;2022-11-02T08:04:12;101779.38;;;11.59;92.36
31285;BME280;56605;51.516;6.742;2022-11-02T08:06:37;101780.47;;;11.66;92.79
31285;BME280;56605;51.516;6.742;2022-11-02T08:09:02;101781.69;;;11.72;91.60
31285;BME280;56605;51.516;6.742;2022-11-02T08:11:28;101780.47;;;11.66;91.29
31285;BME280;56605;51.516;6.742;2022-11-02T08:13:53;101791.69;;;11.70;91.98
31285;BME280;56605;51.516;6.742;2022-11-02T08:16:18;101796.34;;;11.68;91.08
31285;BME280;56605;51.516;6.742;2022-11-02T08:18:43;101800.13;;;11.75;91.96
31285;BME280;56605;51.516;6.742;2022-11-02T08:21:09;101792.09;;;11.75;91.70
31285;BME280;56605;51.516;6.742;2022-11-02T08:23:34;101803.63;;;11.76;90.46
31285;BME280;56605;51.516;6.742;2022-11-02T08:25:59;101794.06;;;11.73;91.34
31285;BME280;56605;51.516;6.742;2022-11-02T08:28:27;101798.56;;;11.73;91.19
31285;BME280;56605;51.516;6.742;2022-11-02T08:30:56;101807.06;;;11.86;89.99
31285;BME280;56605;51.516;6.742;2022-11-02T08:33:22;101805.09;;;11.88;89.75
31285;BME280;56605;51.516;6.742;2022-11-02T08:35:47;101806.41;;;11.84;90.60
31285;BME280;56605;51.516;6.742;2022-11-02T08:38:13;101811.06;;;11.82;90.70
31285;BME280;56605;51.516;6.742;2022-11-02T08:40:39;101814.00;;;11.89;90.26
31285;BME280;56605;51.516;6.742;2022-11-02T08:43:09;101819.78;;;12.02;89.64
31285;BME280;56605;51.516;6.742;2022-11-02T08:45:36;101827.66;;;12.14;89.21
31285;BME280;56605;51.516;6.742;2022-11-02T08:48:03;101826.34;;;12.18;88.13
31285;BME280;56605;51.516;6.742;2022-11-02T08:50:28;101824.50;;;12.18;87.34
31285;BME280;56605;51.516;6.742;2022-11-02T08:52:54;101826.16;;;12.01;88.36
31285;BME280;56605;51.516;6.742;2022-11-02T08:55:19;101835.56;;;12.05;88.14
31285;BME280;56605;51.516;6.742;2022-11-02T08:57:48;101824.72;;;12.07;88.96
31285;BME280;56605;51.516;6.742;2022-11-02T09:00:15;101826.50;;;12.16;88.81
31285;BME280;56605;51.516;6.742;2022-11-02T09:02:41;101827.88;;;12.21;89.03
31285;BME280;56605;51.516;6.742;2022-11-02T09:05:08;101833.09;;;12.22;89.29
31285;BME280;56605;51.516;6.742;2022-11-02T09:07:34;101831.59;;;12.10;90.31
31285;BME280;56605;51.516;6.742;2022-11-02T09:09:59;101835.91;;;12.21;89.79
31285;BME280;56605;51.516;6.742;2022-11-02T09:12:24;101841.69;;;12.26;89.10
31285;BME280;56605;51.516;6.742;2022-11-02T09:14:50;101841.19;;;12.30;89.27
31285;BME280;56605;51.516;6.742;2022-11-02T09:17:15;101834.91;;;12.22;87.17
31285;BME280;56605;51.516;6.742;2022-11-02T09:19:40;101841.13;;;12.22;87.93
31285;BME280;56605;51.516;6.742;2022-11-02T09:22:06;101840.06;;;12.51;87.49
31285;BME280;56605;51.516;6.742;2022-11-02T09:24:32;101846.94;;;12.72;86.13
31285;BME280;56605;51.516;6.742;2022-11-02T09:26:57;101851.97;;;12.93;85.43
31285;BME280;56605;51.516;6.742;2022-11-02T09:29:22;101851.97;;;12.93;84.18
31285;BME280;56605;51.516;6.742;2022-11-02T09:31:48;101860.72;;;12.77;83.62
31285;BME280;56605;51.516;6.742;2022-11-02T09:34:14;101861.78;;;12.85;83.92
31285;BME280;56605;51.516;6.742;2022-11-02T09:36:40;101855.84;;;12.99;81.89
31285;BME280;56605;51.516;6.742;2022-11-02T09:39:05;101856.41;;;12.85;83.82
31285;BME280;56605;51.516;6.742;2022-11-02T09:41:40;101858.81;;;12.51;83.58
31285;BME280;56605;51.516;6.742;2022-11-02T09:44:13;101862.41;;;12.42;85.18
31285;BME280;56605;51.516;6.742;2022-11-02T09:46:44;101866.47;;;12.46;83.65
31285;BME280;56605;51.516;6.742;2022-11-02T09:49:14;101857.72;;;12.44;83.56
31285;BME280;56605;51.516;6.742;2022-11-02T09:51:43;101861.63;;;12.50;83.02
31285;BME280;56605;51.516;6.742;2022-11-02T09:57:05;101860.44;;;13.60;77.57
31285;BME280;56605;51.516;6.742;2022-11-02T09:59:33;101858.25;;;13.64;75.47
31285;BME280;56605;51.516;6.742;2022-11-02T10:02:10;101852.19;;;13.88;73.91
31285;BME280;56605;51.516;6.742;2022-11-02T10:04:54;101861.38;;;15.29;66.71
31285;BME280;56605;51.516;6.742;2022-11-02T10:13:22;101878.50;;;15.84;63.47
31285;BME280;56605;51.516;6.742;2022-11-02T10:15:59;101893.47;;;14.55;63.73
31285;BME280;56605;51.516;6.742;2022-11-02T10:18:28;101877.84;;;14.67;63.88
31285;BME280;56605;51.516;6.742;2022-11-02T10:20:58;101891.47;;;15.24;62.10
31285;BME280;56605;51.516;6.742;2022-11-02T10:23:31;101876.59;;;15.53;61.09
31285;BME280;56605;51.516;6.742;2022-11-02T10:26:00;101906.22;;;15.45;61.73
31285;BME280;56605;51.516;6.742;2022-11-02T10:28:30;101903.03;;;15.33;61.58
31285;BME280;56605;51.516;6.742;2022-11-02T10:30:56;101898.31;;;14.52;63.41
31285;BME280;56605;51.516;6.742;2022-11-02T10:33:26;101899.78;;;14.21;63.36
31285;BME280;56605;51.516;6.742;2022-11-02T10:44:23;101896.66;;;14.67;61.03
31285;BME280;56605;51.516;6.742;2022-11-02T10:47:06;101912.78;;;14.59;62.51
31285;BME280;56605;51.516;6.742;2022-11-02T10:52:36;101907.59;;;15.89;57.96
31285;BME280;56605;51.516;6.742;2022-11-02T10:55:03;101909.75;;;15.37;56.06
31285;BME280;56605;51.516;6.742;2022-11-02T10:57:31;101911.88;;;15.67;56.55
31285;BME280;56605;51.516;6.742;2022-11-02T11:00:22;101913.06;;;16.68;54.19
31285;BME280;56605;51.516;6.742;2022-11-02T11:03:02;101920.78;;;16.24;53.88
31285;BME280;56605;51.516;6.742;2022-11-02T11:05:27;101918.09;;;16.16;53.38
31285;BME280;56605;51.516;6.742;2022-11-02T11:07:53;101909.78;;;16.57;53.04
31285;BME280;56605;51.516;6.742;2022-11-02T11:10:18;101919.06;;;16.55;53.16
31285;BME280;56605;51.516;6.742;2022-11-02T11:12:43;101922.97;;;15.64;54.88
31285;BME280;56605;51.516;6.742;2022-11-02T11:15:21;101923.81;;;16.21;54.28
31285;BME280;56605;51.516;6.742;2022-11-02T11:17:48;101922.75;;;16.30;53.63
31285;BME280;56605;51.516;6.742;2022-11-02T11:23:17;101917.44;;;16.69;54.14
31285;BME280;56605;51.516;6.742;2022-11-02T11:25:52;101923.81;;;17.68;51.58
31285;BME280;56605;51.516;6.742;2022-11-02T11:31:13;101914.22;;;16.73;53.33
31285;BME280;56605;51.516;6.742;2022-11-02T11:33:56;101915.97;;;17.13;52.01
31285;BME280;56605;51.516;6.742;2022-11-02T11:36:31;101919.16;;;16.85;51.62
31285;BME280;56605;51.516;6.742;2022-11-02T11:39:00;101918.63;;;16.90;51.53
31285;BME280;56605;51.516;6.742;2022-11-02T11:41:27;101914.66;;;17.24;50.82
31285;BME280;56605;51.516;6.742;2022-11-02T11:43:53;101915.84;;;16.83;50.97
31285;BME280;56605;51.516;6.742;2022-11-02T11:46:19;101931.06;;;17.38;50.27
31285;BME280;56605;51.516;6.742;2022-11-02T11:48:53;101925.31;;;17.41;50.53
31285;BME280;56605;51.516;6.742;2022-11-02T11:51:36;101922.66;;;16.94;49.31
31285;BME280;56605;51.516;6.742;2022-11-02T11:56:40;101921.22;;;17.45;49.89
31285;BME280;56605;51.516;6.742;2022-11-02T11:59:29;101921.50;;;17.80;49.45
31285;BME280;56605;51.516;6.742;2022-11-02T12:01:58;101915.28;;;18.32;47.28
31285;BME280;56605;51.516;6.742;2022-11-02T12:04:31;101922.97;;;18.13;47.73
31285;BME280;56605;51.516;6.742;2022-11-02T12:20:55;101897.38;;;17.48;49.48
31285;BME280;56605;51.516;6.742;2022-11-02T12:23:44;101888.97;;;17.28;49.70
31285;BME280;56605;51.516;6.742;2022-11-02T12:31:43;101891.31;;;17.31;49.48
31285;BME280;56605;51.516;6.742;2022-11-02T12:37:24;101887.97;;;17.06;50.49
31285;BME280;56605;51.516;6.742;2022-11-02T12:40:21;101885.78;;;16.16;52.81
31285;BME280;56605;51.516;6.742;2022-11-02T12:45:54;101881.31;;;16.78;52.54
31285;BME280;56605;51.516;6.742;2022-11-02T12:54:19;101893.94;;;17.24;50.10
31285;BME280;56605;51.516;6.742;2022-11-02T12:56:47;101884.91;;;16.23;52.21
31285;BME280;56605;51.516;6.742;2022-11-02T12:59:27;101885.50;;;16.10;52.90
31285;BME280;56605;51.516;6.742;2022-11-02T13:02:11;101895.13;;;17.22;50.98
31285;BME280;56605;51.516;6.742;2022-11-02T13:04:48;101894.63;;;18.09;49.69
31285;BME280;56605;51.516;6.742;2022-11-02T13:07:19;101889.66;;;18.28;49.93
31285;BME280;56605;51.516;6.742;2022-11-02T13:12:20;101895.81;;;15.90;54.10
31285;BME280;56605;51.516;6.742;2022-11-02T13:14:53;101887.06;;;15.40;56.55
31285;BME280;56605;51.516;6.742;2022-11-02T13:17:41;101882.16;;;15.92;55.44
31285;BME280;56605;51.516;6.742;2022-11-02T13:20:26;101873.78;;;17.12;52.62
31285;BME280;56605;51.516;6.742;2022-11-02T13:22:59;101868.84;;;17.91;50.92
31285;BME280;56605;51.516;6.742;2022-11-02T13:25:36;101860.88;;;17.68;50.03
31285;BME280;56605;51.516;6.742;2022-11-02T13:28:10;101859.03;;;17.38;51.26
31285;BME280;56605;51.516;6.742;2022-11-02T13:30:38;101867.75;;;17.25;51.83
31285;BME280;56605;51.516;6.742;2022-11-02T13:33:14;101863.44;;;18.06;49.87
31285;BME280;56605;51.516;6.742;2022-11-02T13:35:41;101855.69;;;18.03;49.71
31285;BME280;56605;51.516;6.742;2022-11-02T13:38:32;101860.31;;;17.72;50.43
31285;BME280;56605;51.516;6.742;2022-11-02T13:49:38;101864.38;;;16.69;53.67
31285;BME280;56605;51.516;6.742;2022-11-02T13:52:10;101868.72;;;16.94;54.08
31285;BME280;56605;51.516;6.742;2022-11-02T13:54:54;101871.78;;;17.29;53.16
31285;BME280;56605;51.516;6.742;2022-11-02T13:59:57;101860.50;;;17.71;53.00
31285;BME280;56605;51.516;6.742;2022-11-02T14:02:23;101852.50;;;17.47;52.49
31285;BME280;56605;51.516;6.742;2022-11-02T14:04:49;101852.81;;;17.53;52.61
31285;BME280;56605;51.516;6.742;2022-11-02T14:07:24;101846.28;;;17.32;52.98
31285;BME280;56605;51.516;6.742;2022-11-02T14:09:57;101839.59;;;16.51;54.80
31285;BME280;56605;51.516;6.742;2022-11-02T14:12:28;101847.72;;;16.66;55.91
31285;BME280;56605;51.516;6.742;2022-11-02T14:20:40;101841.94;;;15.90;58.60
31285;BME280;56605;51.516;6.742;2022-11-02T14:39:11;101826.53;;;16.63;57.29
31285;BME280;56605;51.516;6.742;2022-11-02T14:47:30;101830.63;;;16.73;56.94
31285;BME280;56605;51.516;6.742;2022-11-02T14:52:32;101816.84;;;15.66;59.07
31285;BME280;56605;51.516;6.742;2022-11-02T14:55:02;101807.47;;;15.05;62.29
31285;BME280;56605;51.516;6.742;2022-11-02T14:57:41;101807.06;;;15.25;61.75
31285;BME280;56605;51.516;6.742;2022-11-02T15:00:24;101805.38;;;15.24;61.86